Time;durP1;ratioP1;P1;durP2;ratioP2;P2;SDS_P1;SDS_P2;PMS_P1;PMS_P2;Temp;Humidity;BMP_temperature;BMP_pressure;BME280_temperature;BME280_humidity;BME280_pressure;Samples;Min_cycle;Max_cycle;Signal;HPM_P1;HPM_P2
2022/10/19 00:00:48;;;;;;;8.63;7.33;;;13.20;99.90;;;;;;5085266;28;20193;-52
2022/10/19 00:03:15;;;;;;;10.77;7.10;;;13.10;99.90;;;;;;5085543;28;20226;-50
2022/10/19 00:05:42;;;;;;;6.20;5.57;;;13.10;99.90;;;;;;5080290;28;20197;-51
2022/10/19 00:08:09;;;;;;;13.47;7.33;;;13.00;99.90;;;;;;5077188;28;20213;-50
2022/10/19 00:10:40;;;;;;;7.13;6.47;;;13.00;99.90;;;;;;5080173;28;20201;-50
2022/10/19 00:13:09;;;;;;;6.97;6.37;;;12.90;99.90;;;;;;5075052;28;20256;-50
2022/10/19 00:15:39;;;;;;;8.67;7.77;;;12.90;99.90;;;;;;5088124;28;20210;-49
2022/10/19 00:18:06;;;;;;;15.50;8.07;;;12.80;99.90;;;;;;5086921;28;20221;-50
2022/10/19 00:20:33;;;;;;;8.93;7.73;;;12.80;99.90;;;;;;5080070;28;20208;-50
2022/10/19 00:23:01;;;;;;;7.83;7.20;;;12.70;99.90;;;;;;5078089;28;20233;-50
2022/10/19 00:25:28;;;;;;;7.93;6.50;;;12.70;99.90;;;;;;5078921;28;20690;-50
2022/10/19 00:27:55;;;;;;;8.33;7.53;;;12.70;99.90;;;;;;5078423;28;20204;-50
2022/10/19 00:30:23;;;;;;;7.40;6.80;;;12.60;99.90;;;;;;5079091;28;20224;-50
2022/10/19 00:32:50;;;;;;;6.83;5.83;;;12.50;99.90;;;;;;5079760;28;20225;-51
2022/10/19 00:35:17;;;;;;;8.07;7.30;;;12.50;99.90;;;;;;5071448;28;20624;-50
2022/10/19 00:37:44;;;;;;;7.73;6.50;;;12.50;99.90;;;;;;5081692;28;20246;-50
2022/10/19 00:40:11;;;;;;;7.63;6.93;;;12.40;99.90;;;;;;5085866;28;20201;-51
2022/10/19 00:42:39;;;;;;;9.00;7.60;;;12.40;99.90;;;;;;5079400;28;20258;-50
2022/10/19 00:45:13;;;;;;;10.10;7.53;;;12.30;99.90;;;;;;5071363;28;20302;-51
2022/10/19 00:47:42;;;;;;;7.33;6.70;;;12.40;99.90;;;;;;5074334;28;20202;-50
2022/10/19 00:50:10;;;;;;;7.73;7.03;;;12.40;99.90;;;;;;5085310;28;20229;-50
2022/10/19 00:52:37;;;;;;;8.50;6.37;;;12.30;99.90;;;;;;5082607;28;20217;-53
2022/10/19 00:55:07;;;;;;;8.93;6.67;;;12.30;99.90;;;;;;5070923;28;20720;-51
2022/10/19 00:57:34;;;;;;;10.93;8.33;;;12.30;99.90;;;;;;5074743;28;20201;-51
2022/10/19 01:00:05;;;;;;;11.73;7.80;;;12.30;99.90;;;;;;5083102;28;20200;-51
2022/10/19 01:02:32;;;;;;;9.47;7.77;;;12.30;99.90;;;;;;5081035;28;20220;-51
2022/10/19 01:05:01;;;;;;;8.67;7.97;;;12.20;99.90;;;;;;5090749;28;20199;-50
2022/10/19 01:07:29;;;;;;;7.60;6.90;;;12.20;99.90;;;;;;5090026;28;20230;-50
2022/10/19 01:09:56;;;;;;;11.13;6.87;;;12.20;99.90;;;;;;5080008;28;20686;-51
2022/10/19 01:12:46;;;;;;;12.97;7.50;;;12.20;99.90;;;;;;5071182;28;20236;-50
2022/10/19 01:15:23;;;;;;;12.43;7.87;;;12.30;99.90;;;;;;5073560;28;20205;-51
2022/10/19 01:17:59;;;;;;;8.03;7.00;;;12.30;99.90;;;;;;5086548;28;20219;-51
2022/10/19 01:21:08;;;;;;;9.93;8.10;;;12.20;99.90;;;;;;5079302;28;20658;-51
2022/10/19 01:24:12;;;;;;;6.67;6.17;;;12.20;99.90;;;;;;5069210;28;20222;-51
2022/10/19 01:27:16;;;;;;;10.57;6.50;;;12.10;99.90;;;;;;5088894;28;20204;-51
2022/10/19 01:30:16;;;;;;;9.00;7.27;;;12.10;99.90;;;;;;5073844;28;20225;-51
2022/10/19 01:33:12;;;;;;;8.13;6.73;;;12.10;99.90;;;;;;5008733;28;20234;-50
2022/10/19 01:35:45;;;;;;;7.40;6.63;;;12.10;99.90;;;;;;5078142;28;20212;-50
2022/10/19 01:38:25;;;;;;;9.07;8.07;;;12.10;99.90;;;;;;5079181;28;20254;-50
2022/10/19 01:40:58;;;;;;;8.47;6.87;;;12.00;99.90;;;;;;5089767;28;20204;-51
2022/10/19 01:43:41;;;;;;;7.17;6.47;;;11.90;99.90;;;;;;5087798;28;20289;-52
2022/10/19 01:46:14;;;;;;;14.90;8.00;;;11.90;99.90;;;;;;5082768;28;20701;-50
2022/10/19 01:48:51;;;;;;;8.57;7.87;;;11.90;99.90;;;;;;5074527;28;20233;-50
2022/10/19 01:51:25;;;;;;;8.83;7.60;;;11.90;99.90;;;;;;5074258;28;20227;-50
2022/10/19 01:53:56;;;;;;;11.73;7.60;;;11.90;99.90;;;;;;5084325;28;20235;-50
2022/10/19 01:56:27;;;;;;;8.00;7.20;;;11.90;99.90;;;;;;5079674;28;20201;-51
2022/10/19 01:58:58;;;;;;;10.60;6.87;;;11.90;99.90;;;;;;5093476;28;20205;-50
2022/10/19 02:01:30;;;;;;;13.17;7.60;;;11.90;99.90;;;;;;5094569;28;20200;-50
2022/10/19 02:03:58;;;;;;;11.30;8.67;;;11.90;99.90;;;;;;5092038;28;20723;-50
2022/10/19 02:06:25;;;;;;;9.13;7.43;;;11.90;99.90;;;;;;5073926;28;20189;-51
2022/10/19 02:08:54;;;;;;;10.70;7.63;;;11.90;99.90;;;;;;5074135;28;20212;-51
2022/10/19 02:11:22;;;;;;;9.17;8.27;;;11.80;99.90;;;;;;5074156;28;20228;-50
2022/10/19 02:13:54;;;;;;;10.93;8.80;;;11.90;99.90;;;;;;5074491;28;20227;-50
2022/10/19 02:16:29;;;;;;;10.70;7.77;;;11.90;99.90;;;;;;5084536;28;20196;-51
2022/10/19 02:18:57;;;;;;;10.03;7.70;;;11.90;99.90;;;;;;5085255;28;20206;-50
2022/10/19 02:21:25;;;;;;;8.70;7.80;;;11.90;99.90;;;;;;5094145;28;20204;-50
2022/10/19 02:23:52;;;;;;;11.43;8.40;;;11.80;99.90;;;;;;5092970;28;20226;-50
2022/10/19 02:26:20;;;;;;;8.27;7.33;;;11.90;99.90;;;;;;5081445;28;20202;-50
2022/10/19 02:28:48;;;;;;;9.33;7.10;;;11.80;99.90;;;;;;5083612;28;20196;-50
2022/10/19 02:31:15;;;;;;;8.00;7.23;;;11.80;99.90;;;;;;5085317;28;20202;-50
2022/10/19 02:33:44;;;;;;;8.63;7.80;;;11.80;99.90;;;;;;5075941;28;20629;-51
2022/10/19 02:36:11;;;;;;;10.60;8.40;;;11.80;99.90;;;;;;5084283;28;20206;-50
2022/10/19 02:38:38;;;;;;;12.50;8.47;;;11.80;99.90;;;;;;5085414;28;20202;-51
2022/10/19 02:41:10;;;;;;;8.20;7.50;;;11.80;99.90;;;;;;5092848;28;20742;-50
2022/10/19 02:43:41;;;;;;;8.60;7.53;;;11.80;99.90;;;;;;5083660;28;20220;-51
2022/10/19 02:46:11;;;;;;;10.40;9.30;;;11.80;99.90;;;;;;5085191;28;20780;-50
2022/10/19 02:48:39;;;;;;;9.83;8.83;;;11.80;99.90;;;;;;5076867;28;20207;-50
2022/10/19 02:51:27;;;;;;;9.27;8.23;;;11.80;99.90;;;;;;5078284;28;20203;-50
2022/10/19 02:53:54;;;;;;;12.07;7.73;;;11.80;99.90;;;;;;5074900;28;20705;-51
2022/10/19 02:56:21;;;;;;;12.50;9.30;;;11.70;99.90;;;;;;5092625;28;20210;-50
2022/10/19 02:58:48;;;;;;;10.67;9.10;;;11.70;99.90;;;;;;5093656;28;20207;-50
2022/10/19 03:01:15;;;;;;;11.90;8.13;;;11.70;99.90;;;;;;5093693;28;20253;-55
2022/10/19 03:03:45;;;;;;;12.80;8.33;;;11.70;99.90;;;;;;5093257;28;20230;-51
2022/10/19 03:06:14;;;;;;;12.77;9.77;;;11.70;99.90;;;;;;5083047;28;20294;-50
2022/10/19 03:08:41;;;;;;;15.53;10.17;;;11.70;99.90;;;;;;5092445;28;20208;-51
2022/10/19 03:11:08;;;;;;;10.90;9.03;;;11.70;99.90;;;;;;5080563;28;20223;-51
2022/10/19 03:13:35;;;;;;;9.83;8.07;;;11.70;99.90;;;;;;5075544;28;20224;-51
2022/10/19 03:16:09;;;;;;;15.13;10.03;;;11.70;99.90;;;;;;5080973;28;20201;-50
2022/10/19 03:18:36;;;;;;;10.67;8.13;;;11.70;99.90;;;;;;5080902;28;20206;-50
2022/10/19 03:21:05;;;;;;;7.97;7.17;;;11.70;99.90;;;;;;5086277;28;20193;-51
2022/10/19 03:23:34;;;;;;;7.87;7.17;;;11.80;99.90;;;;;;5072434;28;20230;-50
2022/10/19 03:26:01;;;;;;;10.50;7.30;;;11.80;99.90;;;;;;5072889;28;20212;-50
2022/10/19 03:28:28;;;;;;;9.23;8.27;;;11.70;99.90;;;;;;5072800;28;20206;-50
2022/10/19 03:30:55;;;;;;;9.17;7.83;;;11.70;99.90;;;;;;5074486;28;20683;-50
2022/10/19 03:33:22;;;;;;;9.20;7.00;;;11.70;99.90;;;;;;5086968;28;20221;-50
2022/10/19 03:35:49;;;;;;;7.83;7.13;;;11.60;99.90;;;;;;5083735;28;20208;-50
2022/10/19 03:38:17;;;;;;;11.90;7.87;;;11.50;99.90;;;;;;5078820;28;20201;-49
2022/10/19 03:40:45;;;;;;;7.67;6.97;;;11.50;99.90;;;;;;5081783;28;20220;-51
2022/10/19 03:43:12;;;;;;;13.23;7.87;;;11.40;99.90;;;;;;5084423;28;20213;-50
2022/10/19 03:45:39;;;;;;;17.07;8.23;;;11.40;99.90;;;;;;5080037;28;20204;-51
2022/10/19 03:48:06;;;;;;;10.20;7.23;;;11.40;99.90;;;;;;5089963;28;20204;-52
2022/10/19 03:50:33;;;;;;;16.73;7.63;;;11.30;99.90;;;;;;5082835;28;20246;-50
2022/10/19 03:53:00;;;;;;;8.70;7.80;;;11.30;99.90;;;;;;5092038;28;20214;-50
2022/10/19 03:55:27;;;;;;;7.93;7.23;;;11.30;99.90;;;;;;5091700;28;20559;-50
2022/10/19 03:57:55;;;;;;;8.40;7.23;;;11.30;99.90;;;;;;5075499;28;20674;-50
2022/10/19 04:00:22;;;;;;;8.67;7.47;;;11.30;99.90;;;;;;5082946;28;20196;-50
2022/10/19 04:02:49;;;;;;;8.23;6.50;;;11.30;99.90;;;;;;5078804;28;20214;-50
2022/10/19 04:05:16;;;;;;;8.30;6.63;;;11.20;99.90;;;;;;5081632;28;20250;-50
2022/10/19 04:07:43;;;;;;;7.97;7.27;;;11.20;99.90;;;;;;5079891;28;20223;-51
2022/10/19 04:10:10;;;;;;;8.87;8.07;;;11.20;99.90;;;;;;5085985;28;20268;-50
2022/10/19 04:12:37;;;;;;;8.67;7.87;;;11.20;99.90;;;;;;5086231;28;20228;-50
2022/10/19 04:15:07;;;;;;;9.53;8.60;;;11.20;99.90;;;;;;5079883;28;20747;-53
2022/10/19 04:17:34;;;;;;;8.27;7.40;;;11.10;99.90;;;;;;5072103;28;20617;-50
2022/10/19 04:20:00;;;;;;;8.20;7.50;;;11.10;99.90;;;;;;5075305;28;20273;-51
2022/10/19 04:22:28;;;;;;;9.73;7.60;;;11.10;99.90;;;;;;5079942;28;20327;-50
2022/10/19 04:24:55;;;;;;;8.47;7.80;;;11.00;99.90;;;;;;5077258;28;20207;-50
2022/10/19 04:27:22;;;;;;;7.40;6.70;;;11.00;99.90;;;;;;5078113;28;20197;-50
2022/10/19 04:29:49;;;;;;;8.10;7.33;;;11.00;99.90;;;;;;5082242;28;20195;-50
2022/10/19 04:32:17;;;;;;;7.83;7.13;;;11.00;99.90;;;;;;5083295;28;20195;-50
2022/10/19 04:34:44;;;;;;;9.17;7.20;;;11.10;99.90;;;;;;5090433;28;20216;-51
2022/10/19 04:37:11;;;;;;;8.40;7.60;;;11.10;99.90;;;;;;5090628;28;20735;-50
2022/10/19 04:39:39;;;;;;;12.23;8.03;;;11.10;99.90;;;;;;5074725;28;20555;-51
2022/10/19 04:42:06;;;;;;;12.17;7.87;;;11.20;99.90;;;;;;5079531;28;20195;-50
2022/10/19 04:44:33;;;;;;;11.40;6.77;;;11.20;99.90;;;;;;5087288;28;20195;-50
2022/10/19 04:47:00;;;;;;;8.23;7.07;;;11.20;99.90;;;;;;5072000;28;20197;-50
2022/10/19 04:49:29;;;;;;;8.13;7.33;;;11.20;99.90;;;;;;5078296;28;20196;-50
2022/10/19 04:51:56;;;;;;;10.03;8.13;;;11.30;99.90;;;;;;5083817;28;20210;-50
2022/10/19 04:54:23;;;;;;;9.03;8.23;;;11.30;99.90;;;;;;5088976;28;20219;-50
2022/10/19 04:56:52;;;;;;;9.20;8.30;;;11.30;99.90;;;;;;5090367;28;20598;-50
2022/10/19 04:59:19;;;;;;;8.40;7.37;;;11.20;99.90;;;;;;5089605;28;20223;-50
2022/10/19 05:01:46;;;;;;;7.60;6.90;;;11.10;99.90;;;;;;5081295;28;20244;-50
2022/10/19 05:04:13;;;;;;;9.33;8.20;;;11.10;99.90;;;;;;5073851;28;20213;-50
2022/10/19 05:06:42;;;;;;;9.33;7.30;;;11.00;99.90;;;;;;5071609;28;20299;-50
2022/10/19 05:09:09;;;;;;;12.50;8.57;;;11.00;99.90;;;;;;5071474;28;20244;-50
2022/10/19 05:11:35;;;;;;;13.10;8.50;;;11.10;99.90;;;;;;5076988;28;20254;-50
2022/10/19 05:14:02;;;;;;;17.77;9.23;;;11.10;99.90;;;;;;5093680;28;20284;-50
2022/10/19 05:16:29;;;;;;;9.30;8.20;;;11.10;99.90;;;;;;5091583;28;20198;-51
2022/10/19 05:18:58;;;;;;;10.77;8.43;;;11.00;99.90;;;;;;5075445;28;20203;-50
2022/10/19 05:21:26;;;;;;;15.30;9.63;;;11.00;99.90;;;;;;5080374;28;20257;-50
2022/10/19 05:23:56;;;;;;;16.03;9.80;;;11.00;99.90;;;;;;5082602;28;20239;-50
2022/10/19 05:26:24;;;;;;;14.30;10.17;;;11.00;99.90;;;;;;5075924;28;20196;-51
2022/10/19 05:28:55;;;;;;;14.97;10.13;;;11.00;99.90;;;;;;5075219;28;20578;-50
2022/10/19 05:31:23;;;;;;;20.17;12.03;;;11.00;99.90;;;;;;5078328;28;20696;-50
2022/10/19 05:33:50;;;;;;;23.70;10.33;;;11.00;99.90;;;;;;5088053;28;20276;-50
2022/10/19 05:36:19;;;;;;;18.37;11.13;;;11.00;99.90;;;;;;5077337;28;20326;-50
2022/10/19 05:38:51;;;;;;;22.20;12.27;;;10.90;99.90;;;;;;5075690;28;20660;-50
2022/10/19 05:41:20;;;;;;;21.13;12.67;;;10.90;99.90;;;;;;5078831;28;20310;-50
2022/10/19 05:43:53;;;;;;;15.00;11.97;;;10.90;99.90;;;;;;5081213;28;20262;-50
2022/10/19 05:46:21;;;;;;;15.60;10.67;;;10.90;99.90;;;;;;5074232;28;20199;-51
2022/10/19 05:48:49;;;;;;;14.17;10.73;;;10.90;99.90;;;;;;5074039;28;20206;-50
2022/10/19 05:51:18;;;;;;;15.40;11.80;;;10.90;99.90;;;;;;5079061;28;20201;-50
2022/10/19 05:53:47;;;;;;;20.47;11.50;;;10.90;99.90;;;;;;5086342;28;20267;-50
2022/10/19 05:56:19;;;;;;;16.47;9.40;;;11.00;99.90;;;;;;5091837;28;20264;-50
2022/10/19 05:58:50;;;;;;;20.77;10.00;;;11.00;99.90;;;;;;5093038;28;20231;-49
2022/10/19 06:01:18;;;;;;;16.40;12.40;;;11.00;99.90;;;;;;5081786;28;20193;-50
2022/10/19 06:03:46;;;;;;;10.30;9.10;;;11.10;99.90;;;;;;5081489;28;20221;-49
2022/10/19 06:06:13;;;;;;;10.70;8.47;;;11.10;99.90;;;;;;5074308;28;20199;-50
2022/10/19 06:08:40;;;;;;;13.30;8.40;;;11.10;99.90;;;;;;5075861;28;20204;-50
2022/10/19 06:11:10;;;;;;;14.93;9.53;;;11.20;99.90;;;;;;5088663;28;20195;-50
2022/10/19 06:13:38;;;;;;;12.87;10.20;;;11.30;99.90;;;;;;5089476;28;20579;-50
2022/10/19 06:16:07;;;;;;;20.20;12.97;;;11.20;99.90;;;;;;5078041;28;20191;-50
2022/10/19 06:18:35;;;;;;;13.73;9.53;;;11.30;99.90;;;;;;5085455;28;20736;-50
2022/10/19 06:21:03;;;;;;;10.97;9.40;;;11.40;99.90;;;;;;5081394;28;20195;-50
2022/10/19 06:23:30;;;;;;;11.80;8.97;;;11.40;99.90;;;;;;5081570;28;20236;-49
2022/10/19 06:25:57;;;;;;;13.07;8.17;;;11.40;99.90;;;;;;5074067;28;20250;-50
2022/10/19 06:28:24;;;;;;;10.60;9.03;;;11.40;99.90;;;;;;5080283;28;20279;-50
2022/10/19 06:30:51;;;;;;;16.33;8.73;;;11.40;99.90;;;;;;5082732;28;20202;-51
2022/10/19 06:33:20;;;;;;;10.50;8.00;;;11.40;99.90;;;;;;5085182;28;20219;-50
2022/10/19 06:35:47;;;;;;;11.43;7.97;;;11.40;99.90;;;;;;5094170;28;20256;-50
2022/10/19 06:38:14;;;;;;;9.93;7.30;;;11.40;99.90;;;;;;5093256;28;20255;-52
2022/10/19 06:40:40;;;;;;;14.33;10.07;;;11.50;99.90;;;;;;5082129;28;20198;-50
2022/10/19 06:43:07;;;;;;;10.83;8.57;;;11.60;99.90;;;;;;5084727;28;20261;-50
2022/10/19 06:45:37;;;;;;;11.60;8.70;;;11.60;99.90;;;;;;5091842;28;20203;-49
2022/10/19 06:48:05;;;;;;;12.20;9.80;;;11.70;99.90;;;;;;5085245;28;20607;-50
2022/10/19 06:50:34;;;;;;;11.43;9.07;;;11.70;99.90;;;;;;5089425;28;20192;-50
2022/10/19 06:53:01;;;;;;;10.10;7.10;;;11.70;99.90;;;;;;5074723;28;20571;-50
2022/10/19 06:55:28;;;;;;;8.23;7.10;;;11.80;99.90;;;;;;5084238;28;20581;-50
2022/10/19 06:57:55;;;;;;;7.90;6.83;;;11.70;99.90;;;;;;5083949;28;20203;-50
2022/10/19 07:00:22;;;;;;;7.50;6.50;;;11.60;99.90;;;;;;5077899;28;20249;-51
2022/10/19 07:02:49;;;;;;;10.83;7.30;;;11.70;99.90;;;;;;5085801;28;20226;-51
2022/10/19 07:05:16;;;;;;;7.27;6.67;;;11.70;99.90;;;;;;5079601;28;20191;-50
2022/10/19 07:07:44;;;;;;;9.67;8.20;;;11.70;99.90;;;;;;5084392;28;20196;-49
2022/10/19 07:10:12;;;;;;;8.13;7.37;;;11.80;99.90;;;;;;5084349;28;20246;-50
2022/10/19 07:12:39;;;;;;;6.43;5.90;;;11.80;99.90;;;;;;5093014;28;20236;-50
2022/10/19 07:15:07;;;;;;;8.43;7.70;;;11.80;99.90;;;;;;5086018;28;20775;-50
2022/10/19 07:17:34;;;;;;;7.90;7.10;;;11.90;99.90;;;;;;5089993;28;20212;-51
2022/10/19 07:20:01;;;;;;;8.57;7.20;;;12.00;99.90;;;;;;5093142;28;20208;-51
2022/10/19 07:22:28;;;;;;;8.73;7.87;;;12.10;99.90;;;;;;5092901;28;20231;-50
2022/10/19 07:24:57;;;;;;;7.80;7.20;;;12.20;99.90;;;;;;5085519;28;20197;-50
2022/10/19 07:27:24;;;;;;;9.20;7.27;;;12.30;99.90;;;;;;5079579;28;20663;-51
2022/10/19 07:29:52;;;;;;;9.30;7.13;;;12.40;99.90;;;;;;5085682;28;20206;-48
2022/10/19 07:32:19;;;;;;;9.33;7.93;;;12.50;99.90;;;;;;5082363;28;20218;-51
2022/10/19 07:34:46;;;;;;;10.37;7.80;;;12.70;99.90;;;;;;5085609;28;20224;-50
2022/10/19 07:37:13;;;;;;;12.40;8.77;;;12.90;99.90;;;;;;5077807;28;20581;-50
2022/10/19 07:39:40;;;;;;;11.77;8.70;;;12.90;99.90;;;;;;5086243;28;20252;-50
2022/10/19 07:42:08;;;;;;;13.57;7.83;;;13.00;99.90;;;;;;5084380;28;20207;-51
2022/10/19 07:44:35;;;;;;;12.97;9.50;;;13.00;99.90;;;;;;5084292;28;20199;-50
2022/10/19 07:47:05;;;;;;;12.90;9.93;;;13.00;99.90;;;;;;5071565;28;20298;-50
2022/10/19 07:49:31;;;;;;;11.17;9.27;;;13.10;99.90;;;;;;5072302;28;20859;-51
2022/10/19 07:51:59;;;;;;;12.30;9.33;;;13.20;99.90;;;;;;5091294;28;20576;-50
2022/10/19 07:54:26;;;;;;;13.63;10.60;;;13.30;99.90;;;;;;5091608;28;20223;-51
2022/10/19 07:56:53;;;;;;;13.90;11.47;;;13.50;99.90;;;;;;5091787;28;20204;-51
2022/10/19 07:59:21;;;;;;;14.37;12.50;;;13.60;99.90;;;;;;5091614;28;20258;-50
2022/10/19 08:01:49;;;;;;;16.43;12.57;;;13.60;99.90;;;;;;5091501;28;20596;-50
2022/10/19 08:04:16;;;;;;;17.07;13.80;;;13.70;99.90;;;;;;5091151;28;20311;-51
2022/10/19 08:06:43;;;;;;;30.03;15.73;;;13.80;99.90;;;;;;5088098;28;20212;-51
2022/10/19 08:09:10;;;;;;;21.23;15.67;;;14.00;99.90;;;;;;5091517;28;20576;-50
2022/10/19 08:11:37;;;;;;;26.20;17.63;;;14.20;99.90;;;;;;5091345;28;20261;-50
2022/10/19 08:14:05;;;;;;;24.83;15.93;;;14.30;99.90;;;;;;5091004;28;20220;-50
2022/10/19 08:16:36;;;;;;;25.47;15.57;;;14.40;99.90;;;;;;5091303;28;20670;-51
2022/10/19 08:19:07;;;;;;;29.43;19.97;;;14.50;99.90;;;;;;5091421;28;20200;-50
2022/10/19 08:21:35;;;;;;;18.97;16.27;;;14.70;99.90;;;;;;5085935;28;20717;-48
2022/10/19 08:24:02;;;;;;;25.73;18.27;;;14.70;99.90;;;;;;5081991;28;20220;-51
2022/10/19 08:26:29;;;;;;;25.00;17.57;;;14.80;99.90;;;;;;5083862;28;20197;-51
2022/10/19 08:28:59;;;;;;;26.13;16.90;;;14.80;99.90;;;;;;5078104;28;20262;-50
2022/10/19 08:31:27;;;;;;;21.13;14.57;;;14.90;99.90;;;;;;5085527;28;20196;-51
2022/10/19 08:33:55;;;;;;;20.37;14.57;;;15.00;99.90;;;;;;5072759;28;20221;-51
2022/10/19 08:36:22;;;;;;;21.73;16.20;;;15.00;99.90;;;;;;5081306;28;20209;-50
2022/10/19 08:38:50;;;;;;;18.20;13.77;;;15.20;99.90;;;;;;5078754;28;20688;-51
2022/10/19 08:41:30;;;;;;;18.33;13.57;;;15.30;99.90;;;;;;5071614;28;20201;-51
2022/10/19 08:44:05;;;;;;;18.57;12.77;;;15.60;99.90;;;;;;5086412;28;20227;-51
2022/10/19 08:46:40;;;;;;;14.03;11.40;;;16.40;99.90;;;;;;5078187;28;20200;-50
2022/10/19 08:49:12;;;;;;;17.53;11.43;;;17.50;99.90;;;;;;5081384;28;20257;-50
2022/10/19 08:51:42;;;;;;;11.77;8.67;;;18.60;99.90;;;;;;5089441;28;20196;-50
2022/10/19 08:54:16;;;;;;;11.37;9.60;;;19.60;99.90;;;;;;5088321;28;20572;-50
2022/10/19 08:56:49;;;;;;;13.00;8.93;;;20.50;99.90;;;;;;5084480;28;20665;-51
2022/10/19 08:59:27;;;;;;;12.33;10.03;;;20.60;99.90;;;;;;5074745;28;20236;-51
2022/10/19 09:01:56;;;;;;;12.50;8.63;;;21.30;99.90;;;;;;5070471;28;20250;-51
2022/10/19 09:04:29;;;;;;;12.30;9.60;;;21.40;99.90;;;;;;5071904;28;20271;-51
2022/10/19 09:07:13;;;;;;;13.73;10.80;;;21.40;99.90;;;;;;5080159;28;20230;-51
2022/10/19 09:09:44;;;;;;;11.90;9.80;;;21.80;99.90;;;;;;5070627;28;20196;-51
2022/10/19 09:12:17;;;;;;;14.90;9.90;;;22.20;99.90;;;;;;5070571;28;20193;-50
2022/10/19 09:14:51;;;;;;;14.93;10.90;;;21.60;99.90;;;;;;5070225;28;20624;-51
2022/10/19 09:17:18;;;;;;;16.83;11.07;;;21.80;99.90;;;;;;5077727;28;20200;-50
2022/10/19 09:19:47;;;;;;;83.00;25.83;;;22.00;99.90;;;;;;5070583;28;20234;-51
2022/10/19 09:22:20;;;;;;;15.93;11.20;;;22.60;99.90;;;;;;5071201;28;20213;-51
2022/10/19 09:24:50;;;;;;;18.50;11.90;;;22.70;99.90;;;;;;5078199;28;20619;-51
2022/10/19 09:27:22;;;;;;;17.07;11.00;;;22.60;99.90;;;;;;5070564;28;20193;-51
2022/10/19 09:29:54;;;;;;;18.37;10.97;;;22.70;99.90;;;;;;5071274;28;20205;-51
2022/10/19 09:32:25;;;;;;;11.83;10.33;;;22.70;99.90;;;;;;5085923;28;20311;-51
2022/10/19 09:34:57;;;;;;;11.53;10.33;;;22.00;99.90;;;;;;5087623;28;20613;-50
2022/10/19 09:37:25;;;;;;;10.93;9.77;;;21.50;99.90;;;;;;5083540;28;20207;-51
2022/10/19 09:39:53;;;;;;;11.50;10.33;;;21.50;99.90;;;;;;5082627;28;20230;-51
2022/10/19 09:42:24;;;;;;;9.27;8.37;;;21.50;99.90;;;;;;5084286;28;20312;-51
2022/10/19 09:44:52;;;;;;;13.23;10.47;;;21.70;99.90;;;;;;5085601;28;20731;-51
2022/10/19 09:47:36;;;;;;;10.97;9.37;;;21.80;99.90;;;;;;5085627;28;20242;-50
2022/10/19 09:50:15;;;;;;;14.33;10.13;;;21.50;99.90;;;;;;5071245;28;20201;-51
2022/10/19 09:52:43;;;;;;;11.13;10.13;;;21.40;99.90;;;;;;5075827;28;20221;-51
2022/10/19 09:55:22;;;;;;;9.93;8.90;;;21.10;99.90;;;;;;5083885;28;20266;-51
2022/10/19 09:57:57;;;;;;;9.60;8.70;;;21.10;99.90;;;;;;5093443;28;20261;-51
2022/10/19 10:00:26;;;;;;;11.13;8.30;;;21.30;99.90;;;;;;5095058;28;20554;-50
2022/10/19 10:02:54;;;;;;;9.30;8.30;;;21.50;99.90;;;;;;5083284;28;20221;-51
2022/10/19 10:05:31;;;;;;;11.17;8.27;;;21.40;99.90;;;;;;5088990;28;20612;-51
2022/10/19 10:08:01;;;;;;;11.18;8.68;;;21.40;99.90;;;;;;5094847;28;20833;-51
2022/10/19 10:14:31;;;;;;;10.97;9.03;;;21.60;99.90;;;;;;5085904;28;20287;-51
2022/10/19 10:17:03;;;;;;;11.27;7.30;;;21.30;99.90;;;;;;5074212;28;20205;-50
2022/10/19 10:19:32;;;;;;;13.23;8.30;;;21.30;99.90;;;;;;5074322;28;20231;-51
2022/10/19 10:22:02;;;;;;;8.70;7.27;;;21.40;99.90;;;;;;5073949;28;20217;-50
2022/10/19 10:24:31;;;;;;;11.93;8.23;;;21.30;99.90;;;;;;5073818;28;20209;-50
2022/10/19 10:27:00;;;;;;;8.30;6.87;;;21.20;99.90;;;;;;5078021;28;20255;-50
2022/10/19 10:29:28;;;;;;;13.07;8.27;;;20.80;99.90;;;;;;5089308;28;20258;-51
2022/10/19 10:32:00;;;;;;;10.73;7.37;;;20.70;99.90;;;;;;5093054;28;20197;-51
2022/10/19 10:34:34;;;;;;;9.20;7.90;;;20.60;99.90;;;;;;5094115;28;20205;-51
2022/10/19 10:37:04;;;;;;;9.38;8.30;;;20.40;99.90;;;;;;5085057;28;20511;-50
2022/10/19 10:39:32;;;;;;;12.67;7.70;;;20.10;99.90;;;;;;5079380;28;20201;-51
2022/10/19 10:42:06;;;;;;;11.80;9.00;;;19.80;99.90;;;;;;5073570;28;20632;-50
2022/10/19 10:44:35;;;;;;;8.97;8.13;;;19.60;99.90;;;;;;5073435;28;20197;-50
2022/10/19 10:47:05;;;;;;;9.73;7.80;;;19.30;99.90;;;;;;5080367;28;20197;-50
2022/10/19 10:49:35;;;;;;;10.23;8.00;;;19.10;99.90;;;;;;5077209;28;20258;-50
2022/10/19 10:52:09;;;;;;;13.50;9.07;;;19.10;99.90;;;;;;5073124;28;20198;-50
2022/10/19 10:54:38;;;;;;;10.97;8.07;;;19.10;99.90;;;;;;5072983;28;20624;-50
2022/10/19 10:57:14;;;;;;;8.90;8.07;;;19.30;99.90;;;;;;5080624;28;20200;-50
2022/10/19 10:59:52;;;;;;;9.17;8.37;;;19.40;99.90;;;;;;5081879;28;20193;-51
2022/10/19 11:02:30;;;;;;;8.83;8.03;;;19.50;99.90;;;;;;5093467;28;20223;-51
2022/10/19 11:05:01;;;;;;;9.80;8.10;;;19.50;99.90;;;;;;5093087;28;20600;-51
2022/10/19 11:07:33;;;;;;;10.00;9.00;;;19.60;99.90;;;;;;5084235;28;20208;-50
2022/10/19 11:10:08;;;;;;;10.07;9.00;;;19.60;99.90;;;;;;5071940;28;20208;-51
2022/10/19 11:12:40;;;;;;;8.70;7.80;;;19.40;99.90;;;;;;5072862;28;20228;-50
2022/10/19 11:15:19;;;;;;;10.43;9.30;;;19.50;99.90;;;;;;5072676;28;20217;-50
2022/10/19 11:17:56;;;;;;;9.33;8.53;;;19.50;99.90;;;;;;5082369;28;20283;-50
2022/10/19 11:20:27;;;;;;;9.70;7.43;;;19.40;99.90;;;;;;5093086;28;20605;-51
2022/10/19 11:23:04;;;;;;;12.87;9.77;;;19.50;99.90;;;;;;5092744;28;20714;-51
2022/10/19 11:25:42;;;;;;;13.77;8.43;;;19.60;99.90;;;;;;5092258;28;21080;-51
2022/10/19 11:28:21;;;;;;;7.90;7.23;;;19.50;99.90;;;;;;5080828;28;20197;-50
2022/10/19 11:30:57;;;;;;;11.50;7.43;;;19.50;99.90;;;;;;5072484;28;20219;-50
2022/10/19 11:33:37;;;;;;;8.63;6.83;;;19.50;99.90;;;;;;5072465;28;20227;-51
2022/10/19 11:36:10;;;;;;;9.17;7.63;;;19.70;99.90;;;;;;5074927;28;20217;-49
2022/10/19 11:38:51;;;;;;;10.60;7.57;;;19.80;99.90;;;;;;5080686;28;20200;-50
2022/10/19 11:41:30;;;;;;;17.67;8.70;;;19.80;99.90;;;;;;5072109;28;20586;-50
2022/10/19 11:44:07;;;;;;;7.30;6.80;;;19.80;99.90;;;;;;5071825;28;20282;-51
2022/10/19 11:46:42;;;;;;;12.67;8.43;;;19.70;99.90;;;;;;5073983;28;20257;-49
2022/10/19 11:49:22;;;;;;;8.83;8.13;;;19.70;99.90;;;;;;5084699;28;20200;-50
2022/10/19 11:51:56;;;;;;;8.17;7.37;;;19.40;99.90;;;;;;5092704;28;20200;-50
2022/10/19 11:54:37;;;;;;;10.67;8.63;;;19.40;99.90;;;;;;5092302;28;20224;-50
2022/10/19 11:57:12;;;;;;;10.73;8.80;;;19.30;99.90;;;;;;5083195;28;20265;-49
2022/10/19 11:59:54;;;;;;;16.27;10.47;;;19.40;99.90;;;;;;5075288;28;20207;-50
2022/10/19 12:02:50;;;;;;;10.80;9.07;;;19.40;99.90;;;;;;5092542;28;20228;-50
2022/10/19 12:05:18;;;;;;;8.47;7.43;;;19.40;99.90;;;;;;5092142;28;20200;-50
2022/10/19 12:07:56;;;;;;;10.00;8.37;;;19.40;99.90;;;;;;5082018;28;20196;-50
2022/10/19 12:10:33;;;;;;;10.03;9.00;;;19.50;99.90;;;;;;5074345;28;20197;-50
2022/10/19 12:13:04;;;;;;;9.30;8.40;;;19.40;99.90;;;;;;5080013;28;20706;-50
2022/10/19 12:15:35;;;;;;;11.97;9.13;;;19.40;99.90;;;;;;5071843;28;20282;-50
2022/10/19 12:18:10;;;;;;;12.67;9.20;;;19.60;99.90;;;;;;5071816;28;20274;-50
2022/10/19 12:20:42;;;;;;;11.67;9.03;;;19.50;99.90;;;;;;5073048;28;20657;-50
2022/10/19 12:23:23;;;;;;;9.80;8.43;;;19.60;99.90;;;;;;5080406;28;20282;-51
2022/10/19 12:25:53;;;;;;;9.33;8.40;;;19.70;99.90;;;;;;5083264;28;20193;-50
2022/10/19 12:28:24;;;;;;;11.73;8.40;;;19.70;99.90;;;;;;5092419;28;20196;-51
2022/10/19 12:30:52;;;;;;;10.90;9.50;;;19.70;99.90;;;;;;5092577;28;20208;-50
2022/10/19 12:33:23;;;;;;;11.20;8.87;;;19.80;99.90;;;;;;5084067;28;20220;-50
2022/10/19 12:35:59;;;;;;;9.27;8.30;;;19.70;99.90;;;;;;5090463;28;20728;-50
2022/10/19 12:38:35;;;;;;;8.60;7.87;;;19.70;99.90;;;;;;5092248;28;20230;-49
2022/10/19 12:41:08;;;;;;;8.67;7.90;;;19.70;99.90;;;;;;5092051;28;20207;-50
2022/10/19 12:43:47;;;;;;;9.67;8.60;;;19.70;99.90;;;;;;5088238;28;20220;-50
2022/10/19 12:46:27;;;;;;;11.10;7.90;;;19.80;99.90;;;;;;5083613;28;20192;-50
2022/10/19 12:49:42;;;;;;;8.93;8.13;;;19.80;99.90;;;;;;5091822;28;20670;-50
2022/10/19 12:52:09;;;;;;;9.17;8.27;;;19.80;99.90;;;;;;5090489;28;20200;-50
2022/10/19 12:54:39;;;;;;;9.87;8.10;;;19.80;99.90;;;;;;5074838;28;20201;-49
2022/10/19 12:57:25;;;;;;;10.33;9.37;;;19.80;99.90;;;;;;5071379;28;20216;-50
2022/10/19 13:00:02;;;;;;;11.30;8.60;;;19.80;99.90;;;;;;5071712;28;20212;-51